sensor_id;sensor_type;location;lat;lon;timestamp;P1;durP1;ratioP1;P2;durP2;ratioP2
78908;SDS011;68298;37.368;127.108;2023-04-03T00:00:16;77.53;;;8.90;;
78908;SDS011;68298;37.368;127.108;2023-04-03T00:02:48;77.55;;;10.10;;
78908;SDS011;68298;37.368;127.108;2023-04-03T00:05:19;60.08;;;9.65;;
78908;SDS011;68298;37.368;127.108;2023-04-03T00:07:49;51.95;;;8.77;;
78908;SDS011;68298;37.368;127.108;2023-04-03T00:10:21;40.80;;;7.32;;
78908;SDS011;68298;37.368;127.108;2023-04-03T00:12:51;47.33;;;8.00;;
78908;SDS011;68298;37.368;127.108;2023-04-03T00:15:22;29.73;;;6.72;;
78908;SDS011;68298;37.368;127.108;2023-04-03T00:17:52;27.60;;;5.88;;
78908;SDS011;68298;37.368;127.108;2023-04-03T00:20:23;26.95;;;6.60;;
78908;SDS011;68298;37.368;127.108;2023-04-03T00:22:55;16.30;;;6.07;;
78908;SDS011;68298;37.368;127.108;2023-04-03T00:25:25;18.45;;;5.68;;
78908;SDS011;68298;37.368;127.108;2023-04-03T00:27:56;17.98;;;6.57;;
78908;SDS011;68298;37.368;127.108;2023-04-03T00:30:26;22.20;;;5.45;;
78908;SDS011;68298;37.368;127.108;2023-04-03T00:32:57;14.90;;;6.20;;
78908;SDS011;68298;37.368;127.108;2023-04-03T00:35:28;11.30;;;4.63;;
78908;SDS011;68298;37.368;127.108;2023-04-03T00:37:59;13.98;;;5.32;;
78908;SDS011;68298;37.368;127.108;2023-04-03T00:40:33;9.60;;;5.00;;
78908;SDS011;68298;37.368;127.108;2023-04-03T00:43:11;15.93;;;5.22;;
78908;SDS011;68298;37.368;127.108;2023-04-03T00:45:45;6.75;;;4.85;;
78908;SDS011;68298;37.368;127.108;2023-04-03T00:51:21;7.05;;;5.07;;
78908;SDS011;68298;37.368;127.108;2023-04-03T00:53:55;10.00;;;5.75;;
78908;SDS011;68298;37.368;127.108;2023-04-03T00:56:30;9.60;;;5.03;;
78908;SDS011;68298;37.368;127.108;2023-04-03T00:59:04;8.38;;;5.05;;
78908;SDS011;68298;37.368;127.108;2023-04-03T01:01:51;8.90;;;5.85;;
78908;SDS011;68298;37.368;127.108;2023-04-03T01:04:35;8.27;;;5.13;;
78908;SDS011;68298;37.368;127.108;2023-04-03T01:09:41;7.97;;;5.93;;
78908;SDS011;68298;37.368;127.108;2023-04-03T01:12:22;6.75;;;5.20;;
78908;SDS011;68298;37.368;127.108;2023-04-03T01:14:56;7.38;;;5.43;;
78908;SDS011;68298;37.368;127.108;2023-04-03T01:17:36;10.23;;;5.45;;
78908;SDS011;68298;37.368;127.108;2023-04-03T01:25:48;5.43;;;4.07;;
78908;SDS011;68298;37.368;127.108;2023-04-03T01:28:22;6.20;;;4.85;;
78908;SDS011;68298;37.368;127.108;2023-04-03T01:33:48;4.97;;;4.00;;
78908;SDS011;68298;37.368;127.108;2023-04-03T01:36:20;6.45;;;4.43;;
78908;SDS011;68298;37.368;127.108;2023-04-03T01:38:54;6.93;;;4.60;;
78908;SDS011;68298;37.368;127.108;2023-04-03T01:41:25;5.75;;;4.40;;
78908;SDS011;68298;37.368;127.108;2023-04-03T01:44:03;5.15;;;4.28;;
78908;SDS011;68298;37.368;127.108;2023-04-03T01:46:34;4.93;;;4.03;;
78908;SDS011;68298;37.368;127.108;2023-04-03T01:49:06;5.47;;;4.30;;
78908;SDS011;68298;37.368;127.108;2023-04-03T01:51:37;6.20;;;4.80;;
78908;SDS011;68298;37.368;127.108;2023-04-03T01:54:07;5.70;;;4.63;;
78908;SDS011;68298;37.368;127.108;2023-04-03T01:56:39;5.55;;;4.00;;
78908;SDS011;68298;37.368;127.108;2023-04-03T01:59:10;5.63;;;4.45;;
78908;SDS011;68298;37.368;127.108;2023-04-03T02:01:40;4.75;;;4.00;;
78908;SDS011;68298;37.368;127.108;2023-04-03T02:04:12;5.82;;;4.13;;
78908;SDS011;68298;37.368;127.108;2023-04-03T02:06:43;6.47;;;5.15;;
78908;SDS011;68298;37.368;127.108;2023-04-03T02:09:15;6.00;;;4.38;;
78908;SDS011;68298;37.368;127.108;2023-04-03T02:11:46;7.97;;;5.07;;
78908;SDS011;68298;37.368;127.108;2023-04-03T02:14:19;5.93;;;4.45;;
78908;SDS011;68298;37.368;127.108;2023-04-03T02:16:52;5.78;;;3.85;;
78908;SDS011;68298;37.368;127.108;2023-04-03T02:19:23;7.60;;;4.72;;
78908;SDS011;68298;37.368;127.108;2023-04-03T02:21:53;5.40;;;4.28;;
78908;SDS011;68298;37.368;127.108;2023-04-03T02:24:24;7.07;;;3.80;;
78908;SDS011;68298;37.368;127.108;2023-04-03T02:26:55;6.10;;;4.60;;
78908;SDS011;68298;37.368;127.108;2023-04-03T02:29:25;4.30;;;3.88;;
78908;SDS011;68298;37.368;127.108;2023-04-03T02:31:57;5.80;;;4.45;;
78908;SDS011;68298;37.368;127.108;2023-04-03T02:34:28;4.68;;;3.70;;
78908;SDS011;68298;37.368;127.108;2023-04-03T02:37:01;5.63;;;4.33;;
78908;SDS011;68298;37.368;127.108;2023-04-03T02:39:31;5.65;;;4.30;;
78908;SDS011;68298;37.368;127.108;2023-04-03T02:42:02;6.80;;;4.75;;
78908;SDS011;68298;37.368;127.108;2023-04-03T02:44:33;6.75;;;4.28;;
78908;SDS011;68298;37.368;127.108;2023-04-03T02:47:04;5.18;;;4.03;;
78908;SDS011;68298;37.368;127.108;2023-04-03T02:49:36;6.32;;;4.60;;
78908;SDS011;68298;37.368;127.108;2023-04-03T02:52:06;5.78;;;4.28;;
78908;SDS011;68298;37.368;127.108;2023-04-03T02:54:37;5.75;;;4.55;;
78908;SDS011;68298;37.368;127.108;2023-04-03T02:57:09;5.72;;;4.10;;
78908;SDS011;68298;37.368;127.108;2023-04-03T02:59:40;6.45;;;4.22;;
78908;SDS011;68298;37.368;127.108;2023-04-03T03:02:11;5.07;;;4.22;;
78908;SDS011;68298;37.368;127.108;2023-04-03T03:04:42;4.03;;;3.60;;
78908;SDS011;68298;37.368;127.108;2023-04-03T03:07:12;5.22;;;4.07;;
78908;SDS011;68298;37.368;127.108;2023-04-03T03:09:43;5.43;;;4.28;;
78908;SDS011;68298;37.368;127.108;2023-04-03T03:12:14;5.18;;;3.90;;
78908;SDS011;68298;37.368;127.108;2023-04-03T03:14:44;8.02;;;5.53;;
78908;SDS011;68298;37.368;127.108;2023-04-03T03:17:16;7.95;;;6.10;;
78908;SDS011;68298;37.368;127.108;2023-04-03T03:19:47;10.50;;;6.20;;
78908;SDS011;68298;37.368;127.108;2023-04-03T03:22:18;9.88;;;5.97;;
78908;SDS011;68298;37.368;127.108;2023-04-03T03:24:49;12.10;;;6.13;;
78908;SDS011;68298;37.368;127.108;2023-04-03T03:27:20;14.90;;;6.30;;
78908;SDS011;68298;37.368;127.108;2023-04-03T03:29:50;10.35;;;7.18;;
78908;SDS011;68298;37.368;127.108;2023-04-03T03:32:21;13.45;;;8.20;;
78908;SDS011;68298;37.368;127.108;2023-04-03T03:34:51;11.63;;;8.93;;
78908;SDS011;68298;37.368;127.108;2023-04-03T03:37:23;16.75;;;8.52;;
78908;SDS011;68298;37.368;127.108;2023-04-03T03:39:54;13.57;;;8.65;;
78908;SDS011;68298;37.368;127.108;2023-04-03T03:42:24;15.88;;;8.48;;
78908;SDS011;68298;37.368;127.108;2023-04-03T03:44:55;13.50;;;8.60;;
78908;SDS011;68298;37.368;127.108;2023-04-03T03:47:25;16.30;;;9.65;;
78908;SDS011;68298;37.368;127.108;2023-04-03T03:49:57;15.55;;;10.13;;
78908;SDS011;68298;37.368;127.108;2023-04-03T03:52:28;17.08;;;10.23;;
78908;SDS011;68298;37.368;127.108;2023-04-03T03:54:59;16.95;;;10.93;;
78908;SDS011;68298;37.368;127.108;2023-04-03T03:57:29;25.25;;;11.05;;
78908;SDS011;68298;37.368;127.108;2023-04-03T04:00:01;19.20;;;10.65;;
78908;SDS011;68298;37.368;127.108;2023-04-03T04:02:41;24.73;;;12.05;;
78908;SDS011;68298;37.368;127.108;2023-04-03T04:05:16;24.13;;;12.75;;
78908;SDS011;68298;37.368;127.108;2023-04-03T04:07:47;25.23;;;11.45;;
78908;SDS011;68298;37.368;127.108;2023-04-03T04:10:18;24.10;;;12.55;;
78908;SDS011;68298;37.368;127.108;2023-04-03T04:12:49;18.52;;;12.27;;
78908;SDS011;68298;37.368;127.108;2023-04-03T04:15:23;21.02;;;11.80;;
78908;SDS011;68298;37.368;127.108;2023-04-03T04:17:55;19.40;;;11.63;;
78908;SDS011;68298;37.368;127.108;2023-04-03T04:20:26;22.42;;;13.60;;
78908;SDS011;68298;37.368;127.108;2023-04-03T04:22:57;18.30;;;12.57;;
78908;SDS011;68298;37.368;127.108;2023-04-03T04:25:28;34.60;;;12.65;;
78908;SDS011;68298;37.368;127.108;2023-04-03T04:28:00;21.15;;;12.52;;
78908;SDS011;68298;37.368;127.108;2023-04-03T04:30:31;30.33;;;12.65;;
78908;SDS011;68298;37.368;127.108;2023-04-03T04:33:03;33.70;;;13.30;;
78908;SDS011;68298;37.368;127.108;2023-04-03T04:35:34;104.78;;;17.92;;
78908;SDS011;68298;37.368;127.108;2023-04-03T04:38:06;65.13;;;16.13;;
78908;SDS011;68298;37.368;127.108;2023-04-03T04:40:37;68.97;;;15.32;;
78908;SDS011;68298;37.368;127.108;2023-04-03T04:43:09;42.70;;;12.63;;
78908;SDS011;68298;37.368;127.108;2023-04-03T04:45:45;38.92;;;14.93;;
78908;SDS011;68298;37.368;127.108;2023-04-03T04:48:19;34.15;;;13.90;;
78908;SDS011;68298;37.368;127.108;2023-04-03T04:50:49;38.60;;;23.80;;
78908;SDS011;68298;37.368;127.108;2023-04-03T04:53:20;43.83;;;24.50;;
78908;SDS011;68298;37.368;127.108;2023-04-03T04:55:51;39.95;;;25.65;;
78908;SDS011;68298;37.368;127.108;2023-04-03T04:58:22;43.97;;;28.38;;
78908;SDS011;68298;37.368;127.108;2023-04-03T05:01:03;55.03;;;28.42;;
78908;SDS011;68298;37.368;127.108;2023-04-03T05:03:43;45.65;;;29.27;;
78908;SDS011;68298;37.368;127.108;2023-04-03T05:06:14;49.10;;;29.38;;
78908;SDS011;68298;37.368;127.108;2023-04-03T05:08:46;47.58;;;29.38;;
78908;SDS011;68298;37.368;127.108;2023-04-03T05:11:16;55.13;;;30.52;;
78908;SDS011;68298;37.368;127.108;2023-04-03T05:16:22;60.20;;;30.65;;
78908;SDS011;68298;37.368;127.108;2023-04-03T05:18:53;50.83;;;30.48;;
78908;SDS011;68298;37.368;127.108;2023-04-03T05:21:24;48.38;;;30.38;;
78908;SDS011;68298;37.368;127.108;2023-04-03T05:23:56;47.78;;;28.98;;
78908;SDS011;68298;37.368;127.108;2023-04-03T05:26:31;40.70;;;28.55;;
78908;SDS011;68298;37.368;127.108;2023-04-03T05:29:02;42.47;;;29.35;;
78908;SDS011;68298;37.368;127.108;2023-04-03T05:31:33;47.53;;;31.10;;
78908;SDS011;68298;37.368;127.108;2023-04-03T05:34:06;39.75;;;29.40;;
78908;SDS011;68298;37.368;127.108;2023-04-03T05:36:39;49.50;;;30.88;;
78908;SDS011;68298;37.368;127.108;2023-04-03T05:39:12;47.53;;;29.38;;
78908;SDS011;68298;37.368;127.108;2023-04-03T05:41:45;46.65;;;30.95;;
78908;SDS011;68298;37.368;127.108;2023-04-03T05:44:16;46.92;;;29.83;;
78908;SDS011;68298;37.368;127.108;2023-04-03T05:46:48;43.90;;;30.08;;
78908;SDS011;68298;37.368;127.108;2023-04-03T05:49:19;45.80;;;31.25;;
78908;SDS011;68298;37.368;127.108;2023-04-03T05:51:50;48.92;;;31.52;;
78908;SDS011;68298;37.368;127.108;2023-04-03T05:54:25;45.25;;;29.85;;
78908;SDS011;68298;37.368;127.108;2023-04-03T05:57:09;48.70;;;29.75;;
78908;SDS011;68298;37.368;127.108;2023-04-03T05:59:42;148.35;;;36.13;;
78908;SDS011;68298;37.368;127.108;2023-04-03T06:02:18;78.53;;;31.87;;
78908;SDS011;68298;37.368;127.108;2023-04-03T06:04:51;77.47;;;29.98;;
78908;SDS011;68298;37.368;127.108;2023-04-03T06:07:23;75.78;;;31.15;;
78908;SDS011;68298;37.368;127.108;2023-04-03T06:09:57;64.20;;;29.08;;
78908;SDS011;68298;37.368;127.108;2023-04-03T06:12:28;62.15;;;28.60;;
78908;SDS011;68298;37.368;127.108;2023-04-03T06:14:59;47.08;;;26.45;;
78908;SDS011;68298;37.368;127.108;2023-04-03T06:17:30;48.60;;;25.88;;
78908;SDS011;68298;37.368;127.108;2023-04-03T06:20:01;41.53;;;25.08;;
78908;SDS011;68298;37.368;127.108;2023-04-03T06:22:33;46.28;;;24.92;;
78908;SDS011;68298;37.368;127.108;2023-04-03T06:25:03;48.75;;;25.35;;
78908;SDS011;68298;37.368;127.108;2023-04-03T06:27:35;45.88;;;23.83;;
78908;SDS011;68298;37.368;127.108;2023-04-03T06:30:06;41.13;;;24.50;;
78908;SDS011;68298;37.368;127.108;2023-04-03T06:32:37;35.53;;;23.65;;
78908;SDS011;68298;37.368;127.108;2023-04-03T06:35:08;41.03;;;23.63;;
78908;SDS011;68298;37.368;127.108;2023-04-03T06:37:39;40.75;;;23.35;;
78908;SDS011;68298;37.368;127.108;2023-04-03T06:40:18;33.78;;;22.05;;
78908;SDS011;68298;37.368;127.108;2023-04-03T06:42:51;32.03;;;22.10;;
78908;SDS011;68298;37.368;127.108;2023-04-03T06:45:21;32.08;;;22.38;;
78908;SDS011;68298;37.368;127.108;2023-04-03T06:47:55;35.95;;;22.65;;
78908;SDS011;68298;37.368;127.108;2023-04-03T06:50:25;34.13;;;21.25;;
78908;SDS011;68298;37.368;127.108;2023-04-03T06:52:56;32.90;;;22.15;;
78908;SDS011;68298;37.368;127.108;2023-04-03T06:55:26;32.28;;;20.90;;
78908;SDS011;68298;37.368;127.108;2023-04-03T06:57:57;33.33;;;23.38;;
78908;SDS011;68298;37.368;127.108;2023-04-03T07:00:28;37.42;;;23.60;;
78908;SDS011;68298;37.368;127.108;2023-04-03T07:02:59;33.75;;;22.83;;
78908;SDS011;68298;37.368;127.108;2023-04-03T07:05:30;30.83;;;22.08;;
78908;SDS011;68298;37.368;127.108;2023-04-03T07:08:01;33.88;;;22.15;;
78908;SDS011;68298;37.368;127.108;2023-04-03T07:10:31;31.88;;;22.60;;
78908;SDS011;68298;37.368;127.108;2023-04-03T07:13:01;29.08;;;21.60;;
78908;SDS011;68298;37.368;127.108;2023-04-03T07:18:27;28.80;;;21.38;;
78908;SDS011;68298;37.368;127.108;2023-04-03T07:20:58;29.60;;;20.38;;
78908;SDS011;68298;37.368;127.108;2023-04-03T07:23:29;33.20;;;20.92;;
78908;SDS011;68298;37.368;127.108;2023-04-03T07:26:06;37.15;;;22.20;;
78908;SDS011;68298;37.368;127.108;2023-04-03T07:28:38;29.58;;;21.80;;
78908;SDS011;68298;37.368;127.108;2023-04-03T07:31:11;29.63;;;20.85;;
78908;SDS011;68298;37.368;127.108;2023-04-03T07:33:46;29.30;;;20.80;;
78908;SDS011;68298;37.368;127.108;2023-04-03T07:36:18;29.67;;;20.58;;
78908;SDS011;68298;37.368;127.108;2023-04-03T07:38:54;31.38;;;21.38;;
78908;SDS011;68298;37.368;127.108;2023-04-03T07:41:25;29.20;;;19.98;;
78908;SDS011;68298;37.368;127.108;2023-04-03T07:43:56;28.63;;;19.70;;
78908;SDS011;68298;37.368;127.108;2023-04-03T07:46:29;25.58;;;19.25;;
78908;SDS011;68298;37.368;127.108;2023-04-03T07:49:01;28.63;;;19.40;;
78908;SDS011;68298;37.368;127.108;2023-04-03T07:51:32;28.58;;;20.55;;
78908;SDS011;68298;37.368;127.108;2023-04-03T07:54:03;30.38;;;19.92;;
78908;SDS011;68298;37.368;127.108;2023-04-03T07:56:34;28.60;;;20.50;;
78908;SDS011;68298;37.368;127.108;2023-04-03T07:59:06;29.38;;;21.63;;
78908;SDS011;68298;37.368;127.108;2023-04-03T08:01:40;29.90;;;20.65;;
78908;SDS011;68298;37.368;127.108;2023-04-03T08:04:11;30.15;;;20.35;;
78908;SDS011;68298;37.368;127.108;2023-04-03T08:06:42;28.05;;;19.70;;
78908;SDS011;68298;37.368;127.108;2023-04-03T08:09:14;29.70;;;19.40;;
78908;SDS011;68298;37.368;127.108;2023-04-03T08:11:45;27.65;;;19.90;;
78908;SDS011;68298;37.368;127.108;2023-04-03T08:14:15;26.40;;;19.02;;
78908;SDS011;68298;37.368;127.108;2023-04-03T08:16:47;27.08;;;20.00;;
78908;SDS011;68298;37.368;127.108;2023-04-03T08:19:19;29.45;;;20.45;;
78908;SDS011;68298;37.368;127.108;2023-04-03T08:21:56;27.60;;;18.95;;
78908;SDS011;68298;37.368;127.108;2023-04-03T08:24:27;27.83;;;19.30;;
78908;SDS011;68298;37.368;127.108;2023-04-03T08:26:58;24.77;;;18.15;;
78908;SDS011;68298;37.368;127.108;2023-04-03T08:29:29;28.10;;;19.20;;
78908;SDS011;68298;37.368;127.108;2023-04-03T08:32:01;25.52;;;18.83;;
78908;SDS011;68298;37.368;127.108;2023-04-03T08:34:31;26.25;;;19.05;;
78908;SDS011;68298;37.368;127.108;2023-04-03T08:37:05;26.13;;;17.95;;
78908;SDS011;68298;37.368;127.108;2023-04-03T08:39:36;25.45;;;18.10;;
78908;SDS011;68298;37.368;127.108;2023-04-03T08:47:49;26.08;;;18.38;;
78908;SDS011;68298;37.368;127.108;2023-04-03T08:59:35;26.27;;;18.98;;
78908;SDS011;68298;37.368;127.108;2023-04-03T09:05:16;26.42;;;18.80;;
78908;SDS011;68298;37.368;127.108;2023-04-03T09:07:58;29.08;;;20.55;;
78908;SDS011;68298;37.368;127.108;2023-04-03T09:10:44;29.73;;;20.58;;
78908;SDS011;68298;37.368;127.108;2023-04-03T09:15:54;32.17;;;21.23;;
78908;SDS011;68298;37.368;127.108;2023-04-03T09:18:30;24.55;;;18.65;;
78908;SDS011;68298;37.368;127.108;2023-04-03T09:21:20;29.55;;;19.77;;
78908;SDS011;68298;37.368;127.108;2023-04-03T09:24:06;28.48;;;19.45;;
78908;SDS011;68298;37.368;127.108;2023-04-03T09:29:41;27.58;;;19.15;;
78908;SDS011;68298;37.368;127.108;2023-04-03T09:32:31;27.65;;;19.00;;
78908;SDS011;68298;37.368;127.108;2023-04-03T09:35:04;29.02;;;19.75;;
78908;SDS011;68298;37.368;127.108;2023-04-03T09:40:46;26.60;;;19.65;;
78908;SDS011;68298;37.368;127.108;2023-04-03T09:43:33;28.85;;;19.17;;
78908;SDS011;68298;37.368;127.108;2023-04-03T09:46:18;27.52;;;19.75;;
78908;SDS011;68298;37.368;127.108;2023-04-03T09:49:00;28.60;;;18.42;;
78908;SDS011;68298;37.368;127.108;2023-04-03T09:51:37;26.17;;;18.05;;
78908;SDS011;68298;37.368;127.108;2023-04-03T09:54:30;25.63;;;17.83;;
78908;SDS011;68298;37.368;127.108;2023-04-03T09:57:11;28.73;;;18.77;;
78908;SDS011;68298;37.368;127.108;2023-04-03T09:59:47;24.55;;;17.42;;
78908;SDS011;68298;37.368;127.108;2023-04-03T10:02:37;23.73;;;17.25;;
78908;SDS011;68298;37.368;127.108;2023-04-03T10:05:31;27.83;;;18.25;;
78908;SDS011;68298;37.368;127.108;2023-04-03T10:10:45;23.88;;;17.27;;
78908;SDS011;68298;37.368;127.108;2023-04-03T10:13:19;23.65;;;17.25;;
78908;SDS011;68298;37.368;127.108;2023-04-03T10:15:51;26.35;;;16.75;;
78908;SDS011;68298;37.368;127.108;2023-04-03T10:21:43;25.33;;;16.75;;
78908;SDS011;68298;37.368;127.108;2023-04-03T10:29:51;26.50;;;16.83;;
78908;SDS011;68298;37.368;127.108;2023-04-03T10:32:45;25.17;;;17.17;;
78908;SDS011;68298;37.368;127.108;2023-04-03T10:46:44;25.75;;;16.65;;
78908;SDS011;68298;37.368;127.108;2023-04-03T10:57:33;30.15;;;16.30;;
78908;SDS011;68298;37.368;127.108;2023-04-03T11:00:04;27.92;;;16.05;;
78908;SDS011;68298;37.368;127.108;2023-04-03T11:02:56;38.80;;;16.67;;
78908;SDS011;68298;37.368;127.108;2023-04-03T11:19:02;29.90;;;16.48;;
78908;SDS011;68298;37.368;127.108;2023-04-03T11:24:46;25.35;;;15.45;;
78908;SDS011;68298;37.368;127.108;2023-04-03T11:27:27;23.88;;;15.38;;
78908;SDS011;68298;37.368;127.108;2023-04-03T11:30:14;26.55;;;16.65;;
78908;SDS011;68298;37.368;127.108;2023-04-03T11:35:31;22.45;;;14.93;;
78908;SDS011;68298;37.368;127.108;2023-04-03T11:38:05;21.73;;;14.82;;
78908;SDS011;68298;37.368;127.108;2023-04-03T11:40:36;21.23;;;15.05;;
78908;SDS011;68298;37.368;127.108;2023-04-03T11:43:21;24.75;;;15.65;;
78908;SDS011;68298;37.368;127.108;2023-04-03T11:45:58;20.58;;;14.82;;
78908;SDS011;68298;37.368;127.108;2023-04-03T11:53:45;20.67;;;15.52;;
78908;SDS011;68298;37.368;127.108;2023-04-03T12:04:17;21.55;;;14.73;;
78908;SDS011;68298;37.368;127.108;2023-04-03T12:06:52;22.77;;;15.68;;
78908;SDS011;68298;37.368;127.108;2023-04-03T12:09:31;19.77;;;14.02;;
78908;SDS011;68298;37.368;127.108;2023-04-03T12:12:21;23.75;;;14.45;;
78908;SDS011;68298;37.368;127.108;2023-04-03T12:15:38;18.90;;;14.23;;
78908;SDS011;68298;37.368;127.108;2023-04-03T12:24:29;19.85;;;14.80;;
78908;SDS011;68298;37.368;127.108;2023-04-03T12:30:00;18.52;;;13.90;;
78908;SDS011;68298;37.368;127.108;2023-04-03T12:50:13;19.80;;;14.40;;
78908;SDS011;68298;37.368;127.108;2023-04-03T12:55:30;18.27;;;13.73;;
78908;SDS011;68298;37.368;127.108;2023-04-03T12:58:21;21.00;;;14.48;;
78908;SDS011;68298;37.368;127.108;2023-04-03T13:03:30;19.92;;;14.30;;
78908;SDS011;68298;37.368;127.108;2023-04-03T13:06:01;18.88;;;13.32;;
78908;SDS011;68298;37.368;127.108;2023-04-03T13:11:06;22.20;;;13.95;;
78908;SDS011;68298;37.368;127.108;2023-04-03T13:13:44;18.98;;;13.25;;
78908;SDS011;68298;37.368;127.108;2023-04-03T13:16:32;17.98;;;13.63;;
78908;SDS011;68298;37.368;127.108;2023-04-03T13:19:03;20.63;;;14.18;;
78908;SDS011;68298;37.368;127.108;2023-04-03T13:21:34;18.40;;;13.40;;
78908;SDS011;68298;37.368;127.108;2023-04-03T13:24:05;18.95;;;13.90;;
78908;SDS011;68298;37.368;127.108;2023-04-03T13:26:42;18.98;;;13.20;;
78908;SDS011;68298;37.368;127.108;2023-04-03T13:29:22;20.52;;;14.20;;
78908;SDS011;68298;37.368;127.108;2023-04-03T13:32:03;19.75;;;14.25;;
78908;SDS011;68298;37.368;127.108;2023-04-03T13:34:40;17.45;;;14.10;;
78908;SDS011;68298;37.368;127.108;2023-04-03T13:37:26;18.20;;;14.65;;
78908;SDS011;68298;37.368;127.108;2023-04-03T13:40:02;18.95;;;14.95;;
78908;SDS011;68298;37.368;127.108;2023-04-03T13:42:35;22.58;;;15.32;;
78908;SDS011;68298;37.368;127.108;2023-04-03T13:47:50;17.42;;;14.32;;
78908;SDS011;68298;37.368;127.108;2023-04-03T13:50:24;19.15;;;15.43;;
78908;SDS011;68298;37.368;127.108;2023-04-03T13:53:31;22.10;;;15.07;;
78908;SDS011;68298;37.368;127.108;2023-04-03T13:58:34;21.50;;;15.75;;
78908;SDS011;68298;37.368;127.108;2023-04-03T14:01:14;20.90;;;16.05;;
78908;SDS011;68298;37.368;127.108;2023-04-03T14:06:28;20.88;;;14.85;;
78908;SDS011;68298;37.368;127.108;2023-04-03T14:08:59;20.33;;;15.73;;
78908;SDS011;68298;37.368;127.108;2023-04-03T14:11:30;21.30;;;15.07;;
78908;SDS011;68298;37.368;127.108;2023-04-03T14:14:15;23.85;;;16.05;;
78908;SDS011;68298;37.368;127.108;2023-04-03T14:16:55;22.67;;;15.65;;
78908;SDS011;68298;37.368;127.108;2023-04-03T14:19:30;22.38;;;15.88;;
78908;SDS011;68298;37.368;127.108;2023-04-03T14:22:13;18.73;;;14.60;;
78908;SDS011;68298;37.368;127.108;2023-04-03T14:24:46;20.05;;;15.48;;
78908;SDS011;68298;37.368;127.108;2023-04-03T14:27:23;22.77;;;15.35;;
78908;SDS011;68298;37.368;127.108;2023-04-03T14:29:57;18.95;;;15.25;;
78908;SDS011;68298;37.368;127.108;2023-04-03T14:32:28;22.45;;;15.77;;
78908;SDS011;68298;37.368;127.108;2023-04-03T14:34:59;21.08;;;16.27;;
78908;SDS011;68298;37.368;127.108;2023-04-03T14:37:30;21.75;;;15.50;;
78908;SDS011;68298;37.368;127.108;2023-04-03T14:40:02;20.45;;;15.77;;
78908;SDS011;68298;37.368;127.108;2023-04-03T14:42:35;19.83;;;15.25;;
78908;SDS011;68298;37.368;127.108;2023-04-03T14:45:08;22.27;;;15.80;;
78908;SDS011;68298;37.368;127.108;2023-04-03T14:47:44;22.52;;;16.45;;
78908;SDS011;68298;37.368;127.108;2023-04-03T14:50:18;19.58;;;16.15;;
78908;SDS011;68298;37.368;127.108;2023-04-03T14:52:52;18.88;;;14.82;;
78908;SDS011;68298;37.368;127.108;2023-04-03T14:55:25;22.00;;;15.70;;
78908;SDS011;68298;37.368;127.108;2023-04-03T14:57:56;20.90;;;15.88;;
78908;SDS011;68298;37.368;127.108;2023-04-03T15:00:27;21.25;;;15.43;;
78908;SDS011;68298;37.368;127.108;2023-04-03T15:02:58;21.58;;;16.35;;
78908;SDS011;68298;37.368;127.108;2023-04-03T15:05:29;20.88;;;16.73;;
78908;SDS011;68298;37.368;127.108;2023-04-03T15:08:00;19.65;;;15.40;;
78908;SDS011;68298;37.368;127.108;2023-04-03T15:10:31;22.27;;;16.50;;
78908;SDS011;68298;37.368;127.108;2023-04-03T15:13:01;25.67;;;16.85;;
78908;SDS011;68298;37.368;127.108;2023-04-03T15:15:32;21.77;;;16.42;;
78908;SDS011;68298;37.368;127.108;2023-04-03T15:18:06;23.15;;;17.13;;
78908;SDS011;68298;37.368;127.108;2023-04-03T15:20:40;22.45;;;16.05;;
78908;SDS011;68298;37.368;127.108;2023-04-03T15:23:12;22.30;;;16.77;;
78908;SDS011;68298;37.368;127.108;2023-04-03T15:25:45;21.47;;;15.93;;
78908;SDS011;68298;37.368;127.108;2023-04-03T15:28:19;22.42;;;16.50;;
78908;SDS011;68298;37.368;127.108;2023-04-03T15:30:54;22.08;;;15.40;;
78908;SDS011;68298;37.368;127.108;2023-04-03T15:33:25;22.10;;;16.13;;
78908;SDS011;68298;37.368;127.108;2023-04-03T15:35:56;23.33;;;16.88;;
78908;SDS011;68298;37.368;127.108;2023-04-03T15:38:34;20.65;;;16.02;;
78908;SDS011;68298;37.368;127.108;2023-04-03T15:41:07;25.00;;;17.25;;
78908;SDS011;68298;37.368;127.108;2023-04-03T15:43:37;27.17;;;17.70;;
78908;SDS011;68298;37.368;127.108;2023-04-03T15:46:08;20.63;;;16.35;;
78908;SDS011;68298;37.368;127.108;2023-04-03T15:48:39;23.10;;;17.02;;
78908;SDS011;68298;37.368;127.108;2023-04-03T15:51:10;22.02;;;17.10;;
78908;SDS011;68298;37.368;127.108;2023-04-03T15:53:40;23.08;;;17.05;;
78908;SDS011;68298;37.368;127.108;2023-04-03T15:56:12;25.27;;;17.33;;
78908;SDS011;68298;37.368;127.108;2023-04-03T15:58:43;22.10;;;17.08;;
78908;SDS011;68298;37.368;127.108;2023-04-03T16:01:14;23.85;;;17.65;;
78908;SDS011;68298;37.368;127.108;2023-04-03T16:03:45;26.13;;;17.10;;
78908;SDS011;68298;37.368;127.108;2023-04-03T16:06:17;24.90;;;17.67;;
78908;SDS011;68298;37.368;127.108;2023-04-03T16:08:48;23.05;;;17.33;;
78908;SDS011;68298;37.368;127.108;2023-04-03T16:11:19;21.73;;;16.85;;
78908;SDS011;68298;37.368;127.108;2023-04-03T16:13:50;24.48;;;17.25;;
78908;SDS011;68298;37.368;127.108;2023-04-03T16:16:21;24.10;;;17.92;;
78908;SDS011;68298;37.368;127.108;2023-04-03T16:18:54;23.40;;;18.00;;
78908;SDS011;68298;37.368;127.108;2023-04-03T16:21:26;26.20;;;17.85;;
78908;SDS011;68298;37.368;127.108;2023-04-03T16:23:57;22.55;;;17.80;;
78908;SDS011;68298;37.368;127.108;2023-04-03T16:29:00;25.48;;;18.30;;
78908;SDS011;68298;37.368;127.108;2023-04-03T16:31:32;27.23;;;18.30;;
78908;SDS011;68298;37.368;127.108;2023-04-03T16:34:03;22.38;;;16.83;;
78908;SDS011;68298;37.368;127.108;2023-04-03T16:36:33;27.33;;;18.85;;
78908;SDS011;68298;37.368;127.108;2023-04-03T16:39:04;23.17;;;18.23;;
78908;SDS011;68298;37.368;127.108;2023-04-03T16:41:35;24.15;;;18.17;;
78908;SDS011;68298;37.368;127.108;2023-04-03T16:44:06;23.23;;;17.20;;
78908;SDS011;68298;37.368;127.108;2023-04-03T16:46:37;24.65;;;17.15;;
78908;SDS011;68298;37.368;127.108;2023-04-03T16:49:07;24.85;;;18.38;;
78908;SDS011;68298;37.368;127.108;2023-04-03T16:51:38;23.90;;;17.50;;
78908;SDS011;68298;37.368;127.108;2023-04-03T16:54:09;23.45;;;17.65;;
78908;SDS011;68298;37.368;127.108;2023-04-03T16:56:42;23.63;;;18.30;;
78908;SDS011;68298;37.368;127.108;2023-04-03T16:59:12;22.92;;;17.73;;
78908;SDS011;68298;37.368;127.108;2023-04-03T17:01:43;21.65;;;17.33;;
78908;SDS011;68298;37.368;127.108;2023-04-03T17:04:14;22.90;;;17.10;;
78908;SDS011;68298;37.368;127.108;2023-04-03T17:06:46;23.38;;;17.00;;
78908;SDS011;68298;37.368;127.108;2023-04-03T17:09:17;23.90;;;17.23;;
78908;SDS011;68298;37.368;127.108;2023-04-03T17:11:49;22.35;;;17.00;;